Main page
METAR-TAF:

METAR-TAF

Airports :

King Abdulaziz Air Base

Dhahran, Saudi Arabia

latitude: 26-16N, longitude: 050-09E, elevation: 26 m

Current weather observation

The report was made 29 minutes ago, at 08:00 UTC
Wind 6 kt from the South
Temperature 37°C
Humidity 25%
Pressure 1003 hPa
Visibility 10 km or more
no clouds below 1500 m and no cumulonimbus

METAR: OEDR 220800Z 19006KT CAVOK 37/14 Q1003

Time: 11:29 (08:29 UTC)

Forecast

The report was made 10 hours and 29 minutes ago, at 22:00 UTC
Forecast valid from 22 at 00 UTC to 23 at 06 UTC
Wind 5 kt from the East/Southeast
Visibility 10 km or more
no clouds below 1500 m and no cumulonimbus
Becoming
from 22 at 09 UTC to 22 at 11 UTC
Wind 13 kt from the East/Northeast
Becoming
from 23 at 00 UTC to 23 at 02 UTC
Wind 10 kt from the Northwest

TAF: OEDR 212200Z 2200/2306 12005KT CAVOK BECMG 2209/2211 06013KT BECMG 2300/2302 31010KT

Weather observations and forecasts of more than 4000 airports (METAR and TAF reports).

The available stations are represented by yellow and red dots on the map.

Hover mouse over dot to see the name of the station.

Then click to see weather observations and forecasts.

To change the map : click on the green buttons with a black cross to zoom in, on the green button with a dash to zoom out, or on the green arrows for adjacent maps.


METAR-TAF: